Time;durP1;ratioP1;P1;durP2;ratioP2;P2;SDS_P1;SDS_P2;PMS_P1;PMS_P2;Temp;Humidity;BMP_temperature;BMP_pressure;BME280_temperature;BME280_humidity;BME280_pressure;Samples;Min_cycle;Max_cycle;Signal;HPM_P1;HPM_P2
2022/05/06 00:00:21;;;;;;;7.32;4.70;;;;;;;;;;6289326;28;20073;-80
2022/05/06 00:03:22;;;;;;;8.68;4.57;;;;;;;;;;6312172;28;20488;-80
2022/05/06 00:06:24;;;;;;;7.18;4.70;;;;;;;;;;6310866;28;20270;-78
2022/05/06 00:09:26;;;;;;;8.93;4.72;;;;;;;;;;6311385;28;20078;-80
2022/05/06 00:12:27;;;;;;;6.97;4.50;;;;;;;;;;6309541;28;20128;-80
2022/05/06 00:15:29;;;;;;;8.10;4.60;;;;;;;;;;6290473;28;20083;-81
2022/05/06 00:18:35;;;;;;;7.82;4.45;;;;;;;;;;6289417;28;20051;-80
2022/05/06 00:21:36;;;;;;;8.73;5.25;;;;;;;;;;6288028;28;20097;-81
2022/05/06 00:24:38;;;;;;;8.82;5.45;;;;;;;;;;6296091;28;20089;-80
2022/05/06 00:27:43;;;;;;;8.55;4.80;;;;;;;;;;6314507;28;20044;-80
2022/05/06 00:30:44;;;;;;;8.13;4.97;;;;;;;;;;6314014;28;20123;-80
2022/05/06 00:33:47;;;;;;;7.05;4.93;;;;;;;;;;6285120;28;20071;-81
2022/05/06 00:36:49;;;;;;;11.23;5.60;;;;;;;;;;6288688;28;20124;-79
2022/05/06 00:39:51;;;;;;;7.45;5.10;;;;;;;;;;6288335;28;20186;-79
2022/05/06 00:42:55;;;;;;;6.20;4.78;;;;;;;;;;6289037;28;20040;-80
2022/05/06 00:45:57;;;;;;;8.10;5.18;;;;;;;;;;6287829;28;20131;-80
2022/05/06 00:48:59;;;;;;;9.77;5.18;;;;;;;;;;6282960;28;20498;-80
2022/05/06 00:52:03;;;;;;;8.85;5.43;;;;;;;;;;6287148;28;20121;-81
2022/05/06 00:55:06;;;;;;;7.30;4.93;;;;;;;;;;6294972;28;20107;-80
2022/05/06 00:58:09;;;;;;;9.55;5.40;;;;;;;;;;6279829;28;20041;-81
2022/05/06 01:01:11;;;;;;;8.43;4.93;;;;;;;;;;6262545;28;20131;-81
2022/05/06 01:04:16;;;;;;;6.82;4.65;;;;;;;;;;6297903;28;20041;-80
2022/05/06 01:07:21;;;;;;;6.35;5.05;;;;;;;;;;6292696;28;20044;-80
2022/05/06 01:10:23;;;;;;;8.00;5.50;;;;;;;;;;6302832;28;20040;-80
2022/05/06 01:13:25;;;;;;;8.98;4.97;;;;;;;;;;6278453;28;20056;-81
2022/05/06 01:16:34;;;;;;;6.95;5.00;;;;;;;;;;6248321;28;20041;-80
2022/05/06 01:19:37;;;;;;;6.75;4.68;;;;;;;;;;6310160;28;20048;-81
2022/05/06 01:22:39;;;;;;;8.20;5.55;;;;;;;;;;6311489;28;20078;-80
2022/05/06 01:25:42;;;;;;;7.10;5.00;;;;;;;;;;6309524;28;20043;-79
2022/05/06 01:28:44;;;;;;;8.60;4.72;;;;;;;;;;6306523;28;20067;-80
2022/05/06 01:31:46;;;;;;;7.00;4.82;;;;;;;;;;6291834;28;20466;-79
2022/05/06 01:34:50;;;;;;;8.15;5.50;;;;;;;;;;6311892;28;20121;-81
2022/05/06 01:37:53;;;;;;;7.80;5.10;;;;;;;;;;6281059;28;20040;-80
2022/05/06 01:41:00;;;;;;;7.90;5.40;;;;;;;;;;6283312;28;20049;-79
2022/05/06 01:44:09;;;;;;;7.45;5.10;;;;;;;;;;6280311;28;20414;-81
2022/05/06 01:47:23;;;;;;;9.13;5.15;;;;;;;;;;6289598;28;20043;-80
2022/05/06 01:50:28;;;;;;;7.30;4.90;;;;;;;;;;6286059;28;20044;-79
2022/05/06 01:53:31;;;;;;;10.50;6.22;;;;;;;;;;6303241;28;20048;-81
2022/05/06 01:56:33;;;;;;;8.57;5.40;;;;;;;;;;6299849;28;20063;-79
2022/05/06 01:59:34;;;;;;;8.65;5.20;;;;;;;;;;6309954;28;20040;-79
2022/05/06 02:02:47;;;;;;;8.27;5.13;;;;;;;;;;6287819;28;20041;-80
2022/05/06 02:05:57;;;;;;;10.25;5.43;;;;;;;;;;6258901;28;20056;-79
2022/05/06 02:08:59;;;;;;;11.57;5.80;;;;;;;;;;6262168;28;20044;-80
2022/05/06 02:12:13;;;;;;;7.45;5.05;;;;;;;;;;6267641;28;20060;-79
2022/05/06 02:15:40;;;;;;;8.95;4.88;;;;;;;;;;6285739;28;20037;-79
2022/05/06 02:19:08;;;;;;;9.00;5.40;;;;;;;;;;6306021;28;20040;-79
2022/05/06 02:22:30;;;;;;;8.35;5.40;;;;;;;;;;6333901;28;20032;-81
2022/05/06 02:25:50;;;;;;;9.23;4.88;;;;;;;;;;6335004;28;20043;-79
2022/05/06 02:29:00;;;;;;;9.98;5.30;;;;;;;;;;6309960;28;20040;-81
2022/05/06 02:35:26;;;;;;;9.02;5.35;;;;;;;;;;6311409;28;19927;-78
2022/05/06 02:38:28;;;;;;;9.80;5.20;;;;;;;;;;6310437;28;20542;-80
2022/05/06 02:41:32;;;;;;;;;;;;;;;;;;6299889;28;20099;-79
2022/05/06 02:44:34;;;;;;;8.45;5.28;;;;;;;;;;6310687;28;19946;-80
2022/05/06 02:47:36;;;;;;;8.25;5.65;;;;;;;;;;6290829;28;20036;-80
2022/05/06 02:50:41;;;;;;;10.98;5.25;;;;;;;;;;6281964;28;20319;-80
2022/05/06 02:53:43;;;;;;;7.18;5.05;;;;;;;;;;6285329;28;20041;-80
2022/05/06 02:56:49;;;;;;;8.00;4.88;;;;;;;;;;6301288;28;20045;-78
2022/05/06 02:59:50;;;;;;;8.88;5.32;;;;;;;;;;6300734;28;20098;-78
2022/05/06 03:02:57;;;;;;;9.32;4.85;;;;;;;;;;6285335;28;20055;-79
2022/05/06 03:06:01;;;;;;;7.53;4.70;;;;;;;;;;6302801;28;20151;-78
2022/05/06 03:09:03;;;;;;;7.80;5.03;;;;;;;;;;6301934;28;20041;-79
2022/05/06 03:12:09;;;;;;;10.07;5.22;;;;;;;;;;6307699;28;20044;-79
2022/05/06 03:15:19;;;;;;;7.50;4.97;;;;;;;;;;6319021;28;20112;-78
2022/05/06 03:18:27;;;;;;;7.97;5.15;;;;;;;;;;6317511;28;20040;-80
2022/05/06 03:21:29;;;;;;;8.05;4.93;;;;;;;;;;6334135;28;20043;-79
2022/05/06 03:24:31;;;;;;;9.57;5.32;;;;;;;;;;6336956;28;20047;-80
2022/05/06 03:30:52;;;;;;;7.85;4.97;;;;;;;;;;6299251;28;20275;-79
2022/05/06 03:34:11;;;;;;;7.93;5.13;;;;;;;;;;6284985;28;20060;-79
2022/05/06 03:37:17;;;;;;;8.35;5.15;;;;;;;;;;6286837;28;20037;-80
2022/05/06 03:40:22;;;;;;;7.03;4.97;;;;;;;;;;6300436;28;20793;-78
2022/05/06 03:43:27;;;;;;;9.80;5.07;;;;;;;;;;6312165;28;20040;-80
2022/05/06 03:46:33;;;;;;;8.82;5.20;;;;;;;;;;6304797;28;20048;-78
2022/05/06 03:49:35;;;;;;;;;;;;;;;;;;6290898;28;20060;-81
2022/05/06 03:52:38;;;;;;;7.78;4.72;;;;;;;;;;6288732;28;20053;-80
2022/05/06 03:55:41;;;;;;;6.85;4.68;;;;;;;;;;6301937;28;20134;-79
2022/05/06 03:58:43;;;;;;;8.65;5.38;;;;;;;;;;6314588;28;20382;-79
2022/05/06 04:01:47;;;;;;;9.55;5.78;;;;;;;;;;6312456;28;20050;-80
2022/05/06 04:04:57;;;;;;;9.40;6.43;;;;;;;;;;6298779;28;20129;-79
2022/05/06 04:08:00;;;;;;;9.13;5.95;;;;;;;;;;6306951;28;20055;-80
2022/05/06 04:11:03;;;;;;;8.07;5.88;;;;;;;;;;6285466;28;20052;-78
2022/05/06 04:14:05;;;;;;;7.68;6.05;;;;;;;;;;6305294;28;20414;-79
2022/05/06 04:17:12;;;;;;;11.25;6.72;;;;;;;;;;6287155;28;20036;-79
2022/05/06 04:23:38;;;;;;;10.60;5.22;;;;;;;;;;6286320;28;20122;-79
2022/05/06 04:26:45;;;;;;;8.32;5.22;;;;;;;;;;6285788;28;20040;-78
2022/05/06 04:29:48;;;;;;;12.20;5.63;;;;;;;;;;6268318;28;20074;-79
2022/05/06 04:32:51;;;;;;;;;;;;;;;;;;6297949;28;20466;-78
2022/05/06 04:35:54;;;;;;;8.10;5.07;;;;;;;;;;6294194;28;19924;-77
2022/05/06 04:39:00;;;;;;;10.43;5.53;;;;;;;;;;6293900;28;20046;-77
2022/05/06 04:42:04;;;;;;;9.07;5.25;;;;;;;;;;6292396;28;20659;-79
2022/05/06 04:45:10;;;;;;;9.70;5.25;;;;;;;;;;6295232;28;20070;-77
2022/05/06 04:48:22;;;;;;;11.73;5.10;;;;;;;;;;6311306;28;20042;-78
2022/05/06 04:51:24;;;;;;;9.10;5.38;;;;;;;;;;6338403;28;20070;-79
2022/05/06 04:54:26;;;;;;;9.20;5.43;;;;;;;;;;6320206;28;20043;-77
2022/05/06 04:57:28;;;;;;;8.52;5.13;;;;;;;;;;6307660;28;20044;-78
2022/05/06 05:00:32;;;;;;;8.32;5.80;;;;;;;;;;6293068;28;20123;-80
2022/05/06 05:03:33;;;;;;;11.52;5.78;;;;;;;;;;6310935;28;20047;-80
2022/05/06 05:06:36;;;;;;;8.98;5.22;;;;;;;;;;6319275;28;20047;-79
2022/05/06 05:09:42;;;;;;;10.45;5.55;;;;;;;;;;6305272;28;20624;-79
2022/05/06 05:12:45;;;;;;;9.55;5.32;;;;;;;;;;6287582;28;20105;-78
2022/05/06 05:15:47;;;;;;;8.15;5.05;;;;;;;;;;6300351;28;20052;-78
2022/05/06 05:18:49;;;;;;;8.75;5.68;;;;;;;;;;6318463;28;20044;-78
2022/05/06 05:21:51;;;;;;;9.30;5.80;;;;;;;;;;6299762;28;20051;-79
2022/05/06 05:24:54;;;;;;;8.55;5.93;;;;;;;;;;6315800;28;20047;-79
2022/05/06 05:27:56;;;;;;;10.00;5.70;;;;;;;;;;6320291;28;20082;-80
2022/05/06 05:31:04;;;;;;;10.07;5.60;;;;;;;;;;6294418;28;20060;-79
2022/05/06 05:34:08;;;;;;;10.52;6.00;;;;;;;;;;6294787;28;20044;-78
2022/05/06 05:37:10;;;;;;;11.68;5.25;;;;;;;;;;6311968;28;20047;-80
2022/05/06 05:40:12;;;;;;;8.82;5.57;;;;;;;;;;6291485;28;20051;-78
2022/05/06 05:50:05;;;;;;;12.60;5.88;;;;;;;;;;6317829;28;20066;-80
2022/05/06 05:53:07;;;;;;;;;;;;;;;;;;6320263;28;20048;-79
2022/05/06 05:56:10;;;;;;;8.63;5.40;;;;;;;;;;6316910;28;19923;-80
2022/05/06 05:59:12;;;;;;;12.75;5.82;;;;;;;;;;6337465;28;20061;-81
2022/05/06 06:02:16;;;;;;;10.63;5.50;;;;;;;;;;6310019;28;20048;-80
2022/05/06 06:05:23;;;;;;;8.52;4.82;;;;;;;;;;6295211;28;20501;-80
2022/05/06 06:08:24;;;;;;;10.60;4.70;;;;;;;;;;6295199;28;20118;-80
2022/05/06 06:11:31;;;;;;;12.95;5.38;;;;;;;;;;6284838;28;20048;-79
2022/05/06 06:14:32;;;;;;;8.75;4.30;;;;;;;;;;6287475;28;20062;-79
2022/05/06 06:17:34;;;;;;;9.55;4.32;;;;;;;;;;6290716;28;20051;-80
2022/05/06 06:20:38;;;;;;;12.93;4.88;;;;;;;;;;6307152;28;20304;-78
2022/05/06 06:23:40;;;;;;;11.95;4.80;;;;;;;;;;6293395;28;20385;-78
2022/05/06 06:26:42;;;;;;;14.15;4.90;;;;;;;;;;6301822;28;20782;-79
2022/05/06 06:29:50;;;;;;;13.15;4.90;;;;;;;;;;6268139;28;20060;-80
2022/05/06 06:32:53;;;;;;;13.68;4.93;;;;;;;;;;6294260;28;20050;-79
2022/05/06 06:35:56;;;;;;;11.13;4.30;;;;;;;;;;6319433;28;20054;-79
2022/05/06 06:38:58;;;;;;;8.48;4.13;;;;;;;;;;6318907;28;20040;-78
2022/05/06 06:42:02;;;;;;;8.73;4.25;;;;;;;;;;6304970;28;20046;-79
2022/05/06 06:45:15;;;;;;;10.05;4.05;;;;;;;;;;6320884;28;20039;-81
2022/05/06 06:48:55;;;;;;;8.15;4.18;;;;;;;;;;6230229;28;20045;-80
2022/05/06 06:52:15;;;;;;;6.28;3.58;;;;;;;;;;6190759;28;20038;-80
2022/05/06 06:55:17;;;;;;;11.07;4.00;;;;;;;;;;6287890;28;20044;-79
2022/05/06 06:58:19;;;;;;;12.85;3.85;;;;;;;;;;6306432;28;20127;-81
2022/05/06 07:01:21;;;;;;;11.45;4.00;;;;;;;;;;6318008;28;20118;-79
2022/05/06 07:04:23;;;;;;;9.43;4.10;;;;;;;;;;6314884;28;20070;-79
2022/05/06 07:14:09;;;;;;;11.57;3.50;;;;;;;;;;6311100;28;20173;-78
2022/05/06 07:17:10;;;;;;;8.23;3.47;;;;;;;;;;6316993;28;20092;-81
2022/05/06 07:20:12;;;;;;;11.75;3.65;;;;;;;;;;6312320;28;20127;-79
2022/05/06 07:23:14;;;;;;;11.82;3.58;;;;;;;;;;6299024;28;20101;-78
2022/05/06 07:26:16;;;;;;;14.45;3.50;;;;;;;;;;6308131;28;20036;-82
2022/05/06 07:29:19;;;;;;;12.32;3.20;;;;;;;;;;6303164;28;20468;-80
2022/05/06 07:32:21;;;;;;;12.73;3.90;;;;;;;;;;6292074;28;20194;-82
2022/05/06 07:35:22;;;;;;;13.90;3.08;;;;;;;;;;6275162;28;20113;-81
2022/05/06 07:38:24;;;;;;;7.18;2.65;;;;;;;;;;6290666;28;20519;-81
2022/05/06 07:41:25;;;;;;;7.30;2.67;;;;;;;;;;6291472;28;20416;-78
2022/05/06 07:44:28;;;;;;;7.53;2.40;;;;;;;;;;6294303;28;20513;-81
2022/05/06 07:47:30;;;;;;;5.55;2.38;;;;;;;;;;6313636;28;20044;-81
2022/05/06 07:50:52;;;;;;;3.28;2.22;;;;;;;;;;6317870;28;20048;-81
2022/05/06 07:53:55;;;;;;;4.13;2.10;;;;;;;;;;6319855;28;20063;-81
2022/05/06 07:56:57;;;;;;;3.08;1.85;;;;;;;;;;6305852;28;20126;-80
2022/05/06 07:59:58;;;;;;;3.60;1.90;;;;;;;;;;6292376;28;20157;-81
2022/05/06 08:06:20;;;;;;;4.60;2.17;;;;;;;;;;6320289;28;20176;-80
2022/05/06 08:09:22;;;;;;;3.47;1.80;;;;;;;;;;6317972;28;20135;-79
2022/05/06 08:12:25;;;;;;;3.63;1.80;;;;;;;;;;6316510;28;20123;-80
2022/05/06 08:15:27;;;;;;;2.10;1.60;;;;;;;;;;6341619;28;20071;-81
2022/05/06 08:18:29;;;;;;;4.88;2.03;;;;;;;;;;6338278;28;20085;-82
2022/05/06 08:21:31;;;;;;;3.17;1.77;;;;;;;;;;6320473;28;20040;-79
2022/05/06 08:24:33;;;;;;;4.95;2.17;;;;;;;;;;6303580;28;20069;-79
2022/05/06 08:27:39;;;;;;;3.50;1.70;;;;;;;;;;6323690;28;20467;-81
2022/05/06 08:30:41;;;;;;;2.00;1.50;;;;;;;;;;6339189;28;20048;-81
2022/05/06 08:33:42;;;;;;;4.50;1.60;;;;;;;;;;6300881;28;20289;-79
2022/05/06 08:36:44;;;;;;;3.53;1.52;;;;;;;;;;6313198;28;20420;-81
2022/05/06 08:39:46;;;;;;;2.10;1.60;;;;;;;;;;6314120;28;20052;-80
2022/05/06 08:42:49;;;;;;;3.35;1.38;;;;;;;;;;6314313;28;20047;-82
2022/05/06 08:52:43;;;;;;;5.03;1.70;;;;;;;;;;6313809;28;20040;-81
2022/05/06 08:55:44;;;;;;;2.35;1.50;;;;;;;;;;6314408;28;20123;-81
2022/05/06 08:58:46;;;;;;;1.80;1.40;;;;;;;;;;6297195;28;20104;-80
2022/05/06 09:01:48;;;;;;;2.70;1.67;;;;;;;;;;6294909;28;20048;-83
2022/05/06 09:04:50;;;;;;;3.83;1.70;;;;;;;;;;6297172;28;20059;-81
2022/05/06 09:07:55;;;;;;;3.90;1.58;;;;;;;;;;6340785;28;20066;-82
2022/05/06 09:11:00;;;;;;;2.15;1.80;;;;;;;;;;6319475;28;20136;-81
2022/05/06 09:14:03;;;;;;;1.80;1.52;;;;;;;;;;6321243;28;20070;-80
2022/05/06 09:17:21;;;;;;;3.08;1.58;;;;;;;;;;6320495;28;20058;-82
2022/05/06 09:20:26;;;;;;;2.28;1.73;;;;;;;;;;6330141;28;20051;-81
2022/05/06 09:23:29;;;;;;;2.03;1.50;;;;;;;;;;6313053;28;20162;-80
2022/05/06 09:26:29;;;;;;;2.03;1.48;;;;;;;;;;6305335;28;20032;-81
2022/05/06 09:29:42;;;;;;;3.00;1.50;;;;;;;;;;6340781;28;20840;-80
2022/05/06 09:32:44;;;;;;;1.75;1.40;;;;;;;;;;6319488;28;20044;-81
2022/05/06 09:35:46;;;;;;;1.95;1.02;;;;;;;;;;6320813;28;20679;-82
2022/05/06 09:39:10;;;;;;;2.90;1.20;;;;;;;;;;6339186;28;20043;-83
2022/05/06 09:42:14;;;;;;;2.30;1.10;;;;;;;;;;6317615;28;20548;-82
2022/05/06 09:45:34;;;;;;;1.98;1.10;;;;;;;;;;6279784;28;20065;-81
2022/05/06 09:49:01;;;;;;;2.38;1.00;;;;;;;;;;6295717;28;20048;-80
2022/05/06 09:52:13;;;;;;;2.50;0.90;;;;;;;;;;6319479;28;20144;-82
2022/05/06 09:55:15;;;;;;;1.23;1.10;;;;;;;;;;6301032;28;20572;-82
2022/05/06 09:58:17;;;;;;;1.90;0.93;;;;;;;;;;6288205;28;20047;-82
2022/05/06 10:01:19;;;;;;;2.88;0.98;;;;;;;;;;6284894;28;20055;-80
2022/05/06 10:04:21;;;;;;;2.73;1.30;;;;;;;;;;6285306;28;20044;-83
2022/05/06 10:07:25;;;;;;;1.90;1.20;;;;;;;;;;6313886;28;20075;-80
2022/05/06 10:10:29;;;;;;;1.80;1.08;;;;;;;;;;6310708;28;20832;-82
2022/05/06 10:13:34;;;;;;;2.88;1.30;;;;;;;;;;6269212;28;20138;-83
2022/05/06 10:16:36;;;;;;;1.55;0.80;;;;;;;;;;6312548;28;20043;-83
2022/05/06 10:19:38;;;;;;;1.50;0.88;;;;;;;;;;6287958;28;20094;-82
2022/05/06 10:23:09;;;;;;;1.02;0.77;;;;;;;;;;6297348;28;20040;-83
2022/05/06 10:26:33;;;;;;;1.42;0.90;;;;;;;;;;6311214;28;20051;-81
2022/05/06 10:32:56;;;;;;;2.92;1.05;;;;;;;;;;6286156;28;20068;-83
2022/05/06 10:35:58;;;;;;;3.10;0.88;;;;;;;;;;6271788;28;20036;-82
2022/05/06 10:39:13;;;;;;;2.65;1.40;;;;;;;;;;6288909;28;20048;-82
2022/05/06 10:42:16;;;;;;;2.70;1.02;;;;;;;;;;6295068;28;20721;-82
2022/05/06 10:45:45;;;;;;;1.90;1.30;;;;;;;;;;6313683;28;20059;-81
2022/05/06 10:48:50;;;;;;;2.95;0.95;;;;;;;;;;6310466;28;20048;-81
2022/05/06 10:51:52;;;;;;;1.27;0.80;;;;;;;;;;6294012;28;20048;-81
2022/05/06 10:55:00;;;;;;;1.25;0.80;;;;;;;;;;6293527;28;20064;-80
2022/05/06 10:58:04;;;;;;;3.53;1.13;;;;;;;;;;6295666;28;20056;-81
2022/05/06 11:01:06;;;;;;;;;;;;;;;;;;6302963;28;20082;-81
2022/05/06 11:04:17;;;;;;;2.17;1.00;;;;;;;;;;6315502;28;19930;-80
2022/05/06 11:07:19;;;;;;;3.10;1.05;;;;;;;;;;6321258;28;20454;-81
2022/05/06 11:10:25;;;;;;;4.75;1.20;;;;;;;;;;6309909;28;20114;-80
2022/05/06 11:13:27;;;;;;;16.00;10.63;;;;;;;;;;6293170;28;20047;-80
2022/05/06 11:16:29;;;;;;;4.70;2.70;;;;;;;;;;6292460;28;20631;-81
2022/05/06 11:19:33;;;;;;;2.37;1.63;;;;;;;;;;6292087;28;20119;-81
2022/05/06 11:22:36;;;;;;;1.40;1.20;;;;;;;;;;6290521;28;20170;-81
2022/05/06 11:25:42;;;;;;;1.95;1.50;;;;;;;;;;6291294;28;20037;-78
2022/05/06 11:29:00;;;;;;;1.08;0.95;;;;;;;;;;6266878;28;20179;-80
2022/05/06 11:32:02;;;;;;;1.92;1.00;;;;;;;;;;6288798;28;20101;-81
2022/05/06 11:35:11;;;;;;;2.92;1.45;;;;;;;;;;6297863;28;20053;-80
2022/05/06 11:38:13;;;;;;;1.83;1.00;;;;;;;;;;6285627;28;20511;-81
2022/05/06 11:41:17;;;;;;;3.08;1.33;;;;;;;;;;6285128;28;20044;-80
2022/05/06 11:47:27;;;;;;;2.40;1.13;;;;;;;;;;6284418;28;20124;-79
2022/05/06 11:47:46;;;;;;;1.77;1.08;;;;;;;;;;6280951;28;21029;-80
2022/05/06 11:50:53;;;;;;;1.70;0.80;;;;;;;;;;6283253;28;21023;-81
2022/05/06 11:53:55;;;;;;;1.83;0.90;;;;;;;;;;6276718;28;20218;-79
2022/05/06 11:56:57;;;;;;;1.23;0.90;;;;;;;;;;6282663;28;20481;-80
2022/05/06 11:59:59;;;;;;;2.93;1.20;;;;;;;;;;6282384;28;20867;-79
2022/05/06 12:03:06;;;;;;;1.43;1.13;;;;;;;;;;6283367;28;20055;-81
2022/05/06 12:06:08;;;;;;;2.53;1.15;;;;;;;;;;6285823;28;20964;-81
2022/05/06 12:09:11;;;;;;;;;;;;;;;;;;6285386;28;20183;-79
2022/05/06 12:12:12;;;;;;;4.50;1.20;;;;;;;;;;6284054;28;20372;-81
2022/05/06 12:15:15;;;;;;;2.05;1.20;;;;;;;;;;6291777;28;20123;-82
2022/05/06 12:18:24;;;;;;;1.40;1.10;;;;;;;;;;6304278;28;20149;-81
2022/05/06 12:21:27;;;;;;;2.75;1.00;;;;;;;;;;6298085;28;20064;-81
2022/05/06 12:24:38;;;;;;;2.20;1.10;;;;;;;;;;6291632;28;20046;-82
2022/05/06 12:27:40;;;;;;;1.38;0.93;;;;;;;;;;6291626;28;20040;-80
2022/05/06 12:30:44;;;;;;;1.33;0.90;;;;;;;;;;6290311;28;20064;-81
2022/05/06 12:33:46;;;;;;;1.02;0.80;;;;;;;;;;6311628;28;20048;-82
2022/05/06 12:36:48;;;;;;;1.85;0.90;;;;;;;;;;6318405;28;20060;-81
2022/05/06 12:39:50;;;;;;;2.50;1.00;;;;;;;;;;6313278;28;20052;-81
2022/05/06 12:43:09;;;;;;;1.50;1.23;;;;;;;;;;6290212;28;20051;-80
2022/05/06 12:46:10;;;;;;;1.75;0.75;;;;;;;;;;6305913;28;20128;-80
2022/05/06 12:52:38;;;;;;;1.35;0.85;;;;;;;;;;6288924;28;20052;-80
2022/05/06 12:55:43;;;;;;;1.83;1.05;;;;;;;;;;6289919;28;20056;-81
2022/05/06 12:58:52;;;;;;;1.33;0.85;;;;;;;;;;6292380;28;20053;-81
2022/05/06 13:01:55;;;;;;;0.93;0.88;;;;;;;;;;6289250;28;20110;-80
2022/05/06 13:04:57;;;;;;;;;;;;;;;;;;6291410;28;20059;-80
2022/05/06 13:08:04;;;;;;;1.10;1.00;;;;;;;;;;6294651;28;19955;-84
2022/05/06 13:11:05;;;;;;;2.15;1.05;;;;;;;;;;6330173;28;20098;-84
2022/05/06 13:14:07;;;;;;;0.90;0.80;;;;;;;;;;6327428;28;20052;-84
2022/05/06 13:17:09;;;;;;;0.95;0.85;;;;;;;;;;6325902;28;20052;-83
2022/05/06 13:20:11;;;;;;;1.90;0.80;;;;;;;;;;6318109;28;20097;-82
2022/05/06 13:23:12;;;;;;;2.72;0.80;;;;;;;;;;6300137;28;20110;-82
2022/05/06 13:26:14;;;;;;;2.45;1.10;;;;;;;;;;6319410;28;20044;-81
2022/05/06 13:29:16;;;;;;;1.40;1.10;;;;;;;;;;6302358;28;20105;-82
2022/05/06 13:32:17;;;;;;;0.98;0.90;;;;;;;;;;6301381;28;20885;-80
2022/05/06 13:35:19;;;;;;;1.45;0.98;;;;;;;;;;6306701;28;20075;-81
2022/05/06 13:38:21;;;;;;;0.95;0.90;;;;;;;;;;6302034;28;20287;-82
2022/05/06 13:41:23;;;;;;;0.80;0.80;;;;;;;;;;6300266;28;20132;-82
2022/05/06 13:44:25;;;;;;;;;;;;;;;;;;6302159;28;20052;-82
2022/05/06 13:47:28;;;;;;;1.40;0.75;;;;;;;;;;6300262;28;19928;-82
2022/05/06 13:50:29;;;;;;;1.50;0.80;;;;;;;;;;6300500;28;20044;-81
2022/05/06 13:53:33;;;;;;;1.63;0.80;;;;;;;;;;6320336;28;20043;-81
2022/05/06 13:59:55;;;;;;;1.85;0.80;;;;;;;;;;6318234;28;20113;-80
2022/05/06 14:02:58;;;;;;;1.07;0.80;;;;;;;;;;6299065;28;20096;-80
2022/05/06 14:06:00;;;;;;;1.98;0.90;;;;;;;;;;6299327;28;20443;-80
2022/05/06 14:09:02;;;;;;;2.45;0.80;;;;;;;;;;6298250;28;20052;-79
2022/05/06 14:12:04;;;;;;;0.90;0.90;;;;;;;;;;6296261;28;20062;-81
2022/05/06 14:15:06;;;;;;;1.08;0.90;;;;;;;;;;6298759;28;20108;-80
2022/05/06 14:18:08;;;;;;;1.08;0.80;;;;;;;;;;6296992;28;20145;-79
2022/05/06 14:21:10;;;;;;;1.53;1.40;;;;;;;;;;6297161;28;20167;-78
2022/05/06 14:24:13;;;;;;;1.63;1.20;;;;;;;;;;6298648;28;20069;-80
2022/05/06 14:27:16;;;;;;;4.57;0.80;;;;;;;;;;6311406;28;20109;-80
2022/05/06 14:30:18;;;;;;;2.05;0.73;;;;;;;;;;6322677;28;20044;-80
2022/05/06 14:33:20;;;;;;;2.50;0.90;;;;;;;;;;6306348;28;20051;-80
2022/05/06 14:36:22;;;;;;;2.05;0.80;;;;;;;;;;6299214;28;20091;-81
2022/05/06 14:39:24;;;;;;;0.75;0.70;;;;;;;;;;6298443;28;20051;-81
2022/05/06 14:42:25;;;;;;;2.10;1.00;;;;;;;;;;6307878;28;20067;-80
2022/05/06 14:45:27;;;;;;;4.88;0.90;;;;;;;;;;6322774;28;20089;-80
2022/05/06 14:48:29;;;;;;;1.93;0.80;;;;;;;;;;6321253;28;20192;-80
2022/05/06 14:51:30;;;;;;;1.45;0.80;;;;;;;;;;6319965;28;20059;-80
2022/05/06 14:54:32;;;;;;;1.63;0.80;;;;;;;;;;6322283;28;20048;-80
2022/05/06 14:57:35;;;;;;;1.05;0.70;;;;;;;;;;6308724;28;20048;-80
2022/05/06 15:00:38;;;;;;;0.80;0.80;;;;;;;;;;6296866;28;20071;-81
2022/05/06 15:03:39;;;;;;;1.48;0.90;;;;;;;;;;6317674;28;20044;-81
2022/05/06 15:06:41;;;;;;;2.00;0.90;;;;;;;;;;6323922;28;20032;-80
2022/05/06 15:09:43;;;;;;;2.80;1.07;;;;;;;;;;6307634;28;20052;-81
2022/05/06 15:12:44;;;;;;;2.13;0.90;;;;;;;;;;6295223;28;20127;-81
2022/05/06 15:15:46;;;;;;;0.75;0.70;;;;;;;;;;6295787;28;20139;-82
2022/05/06 15:22:08;;;;;;;1.55;0.73;;;;;;;;;;6320362;28;20567;-81
2022/05/06 15:25:13;;;;;;;;;;;;;;;;;;6327382;28;20052;-82
2022/05/06 15:28:14;;;;;;;3.70;1.00;;;;;;;;;;6348059;28;19919;-81
2022/05/06 15:31:16;;;;;;;1.63;1.13;;;;;;;;;;6347032;28;20136;-81
2022/05/06 15:34:18;;;;;;;1.25;0.80;;;;;;;;;;6321440;28;20082;-81
2022/05/06 15:37:20;;;;;;;3.10;0.90;;;;;;;;;;6321061;28;20117;-81
2022/05/06 15:40:22;;;;;;;1.33;0.73;;;;;;;;;;6305431;28;20104;-80
2022/05/06 15:43:24;;;;;;;0.60;0.60;;;;;;;;;;6328638;28;20082;-81
2022/05/06 15:46:25;;;;;;;0.98;0.80;;;;;;;;;;6331849;28;20138;-81
2022/05/06 15:49:27;;;;;;;4.03;1.07;;;;;;;;;;6268394;28;20032;-81
2022/05/06 15:52:29;;;;;;;1.97;1.00;;;;;;;;;;6301977;28;20040;-81
2022/05/06 15:55:30;;;;;;;1.27;0.80;;;;;;;;;;6312961;28;20074;-80
2022/05/06 15:58:32;;;;;;;1.38;1.00;;;;;;;;;;6327566;28;20076;-80
2022/05/06 16:01:34;;;;;;;2.13;0.90;;;;;;;;;;6308465;28;20363;-81
2022/05/06 16:04:36;;;;;;;1.33;0.70;;;;;;;;;;6351507;28;20055;-81
2022/05/06 16:07:38;;;;;;;1.25;0.90;;;;;;;;;;6351089;28;20061;-82
2022/05/06 16:10:40;;;;;;;;;;;;;;;;;;6340750;28;20054;-81
2022/05/06 16:13:41;;;;;;;1.40;0.70;;;;;;;;;;6327054;28;19985;-81
2022/05/06 16:16:43;;;;;;;1.33;1.02;;;;;;;;;;6326567;28;20073;-82
2022/05/06 16:19:45;;;;;;;0.93;0.80;;;;;;;;;;6327667;28;20064;-80
2022/05/06 16:22:51;;;;;;;2.38;0.88;;;;;;;;;;6306425;28;20067;-81
2022/05/06 16:25:54;;;;;;;3.97;1.00;;;;;;;;;;6327606;28;20059;-81
2022/05/06 16:28:57;;;;;;;1.40;1.00;;;;;;;;;;6351224;28;20342;-81
2022/05/06 16:31:59;;;;;;;2.00;0.80;;;;;;;;;;6348004;28;20066;-81
2022/05/06 16:38:21;;;;;;;1.92;0.90;;;;;;;;;;6349689;28;20043;-81
2022/05/06 16:41:22;;;;;;;0.93;0.88;;;;;;;;;;6333352;28;20275;-81
2022/05/06 16:44:25;;;;;;;1.63;1.50;;;;;;;;;;6324083;28;20059;-80
2022/05/06 16:47:27;;;;;;;2.40;2.22;;;;;;;;;;6325193;28;20040;-81
2022/05/06 16:50:29;;;;;;;3.25;0.90;;;;;;;;;;6322482;28;20538;-81
2022/05/06 16:53:32;;;;;;;1.20;1.10;;;;;;;;;;6324229;28;20074;-81
2022/05/06 16:56:34;;;;;;;2.90;1.77;;;;;;;;;;6328550;28;20044;-81
2022/05/06 16:59:36;;;;;;;28.02;16.95;;;;;;;;;;6313024;28;20060;-83
2022/05/06 17:02:38;;;;;;;1.42;1.20;;;;;;;;;;6332710;28;20044;-84
2022/05/06 17:05:39;;;;;;;2.50;1.70;;;;;;;;;;6315293;28;20047;-84
2022/05/06 17:08:41;;;;;;;2.45;1.15;;;;;;;;;;6335050;28;20051;-82
2022/05/06 17:11:43;;;;;;;1.60;0.95;;;;;;;;;;6310089;28;20051;-81
2022/05/06 17:14:45;;;;;;;1.05;0.90;;;;;;;;;;6329388;28;20048;-81
2022/05/06 17:17:49;;;;;;;;;;;;;;;;;;6338830;28;20047;-81
2022/05/06 17:20:51;;;;;;;3.80;1.40;;;;;;;;;;6321587;28;19926;-80
2022/05/06 17:23:53;;;;;;;2.55;1.60;;;;;;;;;;6313485;28;20036;-80
2022/05/06 17:26:54;;;;;;;2.75;1.50;;;;;;;;;;6320181;28;20059;-81
2022/05/06 17:29:56;;;;;;;1.35;1.05;;;;;;;;;;6329350;28;20097;-82
2022/05/06 17:33:01;;;;;;;1.73;0.98;;;;;;;;;;6325588;28;20055;-83
2022/05/06 17:36:03;;;;;;;2.38;1.25;;;;;;;;;;6317154;28;20048;-80
2022/05/06 17:39:07;;;;;;;2.65;1.30;;;;;;;;;;6307762;28;20041;-80
2022/05/06 17:42:10;;;;;;;2.45;1.92;;;;;;;;;;6296539;28;20121;-82
2022/05/06 17:45:14;;;;;;;2.85;1.35;;;;;;;;;;6302716;28;20072;-83
2022/05/06 17:48:16;;;;;;;3.55;1.70;;;;;;;;;;6293594;28;20119;-82
2022/05/06 17:51:18;;;;;;;1.88;1.13;;;;;;;;;;6295660;28;20678;-81
2022/05/06 17:54:20;;;;;;;2.42;1.10;;;;;;;;;;6295869;28;20094;-81
2022/05/06 17:57:21;;;;;;;1.80;1.10;;;;;;;;;;6295365;28;20093;-81
2022/05/06 18:03:52;;;;;;;2.30;1.30;;;;;;;;;;6294579;28;20878;-81
2022/05/06 18:06:54;;;;;;;2.28;1.50;;;;;;;;;;6293989;28;20085;-85
2022/05/06 18:09:56;;;;;;;2.63;1.20;;;;;;;;;;6324352;28;20045;-82
2022/05/06 18:12:58;;;;;;;3.55;1.40;;;;;;;;;;6298436;28;20040;-81
2022/05/06 18:16:00;;;;;;;3.30;1.40;;;;;;;;;;6296670;28;20050;-81
2022/05/06 18:19:02;;;;;;;2.17;1.23;;;;;;;;;;6318622;28;20103;-80
2022/05/06 18:22:04;;;;;;;1.20;1.10;;;;;;;;;;6294318;28;20341;-82
2022/05/06 18:25:06;;;;;;;2.38;1.67;;;;;;;;;;6295210;28;20119;-81
2022/05/06 18:28:08;;;;;;;1.70;1.40;;;;;;;;;;6292228;28;20052;-81
2022/05/06 18:31:10;;;;;;;3.47;1.60;;;;;;;;;;6293391;28;20067;-82
2022/05/06 18:34:12;;;;;;;1.98;1.77;;;;;;;;;;6315671;28;20047;-81
2022/05/06 18:37:13;;;;;;;2.60;1.88;;;;;;;;;;6319383;28;20136;-81
2022/05/06 18:40:16;;;;;;;7.82;4.40;;;;;;;;;;6316493;28;20036;-81
2022/05/06 18:43:18;;;;;;;7.90;4.47;;;;;;;;;;6293936;28;20504;-81
2022/05/06 18:46:20;;;;;;;5.95;3.00;;;;;;;;;;6295385;28;20241;-81
2022/05/06 18:49:24;;;;;;;4.45;3.47;;;;;;;;;;6320037;28;20051;-80
2022/05/06 18:52:26;;;;;;;8.10;4.28;;;;;;;;;;6322384;28;20043;-81
2022/05/06 18:55:27;;;;;;;3.70;2.38;;;;;;;;;;6322680;28;20096;-82
2022/05/06 18:58:30;;;;;;;3.20;1.58;;;;;;;;;;6320386;28;20126;-81
2022/05/06 19:01:31;;;;;;;3.03;2.10;;;;;;;;;;6314269;28;20103;-81
2022/05/06 19:04:36;;;;;;;2.70;2.50;;;;;;;;;;6292444;28;20050;-80
2022/05/06 19:07:38;;;;;;;3.97;2.55;;;;;;;;;;6310188;28;20045;-81
2022/05/06 19:10:39;;;;;;;3.50;1.88;;;;;;;;;;6302213;28;20044;-81
2022/05/06 19:13:41;;;;;;;3.30;1.83;;;;;;;;;;6322699;28;20040;-80
2022/05/06 19:16:42;;;;;;;3.08;1.92;;;;;;;;;;6324176;28;20052;-79
2022/05/06 19:19:44;;;;;;;2.53;1.63;;;;;;;;;;6321118;28;20078;-80